createdAt,value
2018-12-04T00:00:16.986Z,0.00
2018-12-04T00:01:48.657Z,0.00
2018-12-04T00:03:20.129Z,0.00
2018-12-04T00:04:51.700Z,0.00
2018-12-04T00:06:23.272Z,0.00
2018-12-04T00:07:54.844Z,0.00
2018-12-04T00:09:26.417Z,0.00
2018-12-04T00:10:57.987Z,0.00
2018-12-04T00:12:29.558Z,0.00
2018-12-04T00:14:01.130Z,0.00
2018-12-04T00:15:32.702Z,0.00
2018-12-04T00:17:04.273Z,0.00
2018-12-04T00:18:35.845Z,0.00
2018-12-04T00:20:07.617Z,0.00
2018-12-04T00:21:38.989Z,0.00
2018-12-04T00:23:10.559Z,0.00
2018-12-04T00:24:42.131Z,0.00
2018-12-04T00:26:13.805Z,0.00
2018-12-04T00:27:45.273Z,0.00
2018-12-04T00:29:16.851Z,0.00
2018-12-04T00:30:48.417Z,0.00
2018-12-04T00:32:20.139Z,0.00
2018-12-04T00:33:51.560Z,0.00
2018-12-04T00:35:23.132Z,0.00
2018-12-04T00:36:54.704Z,0.00
2018-12-04T00:38:26.475Z,0.00
2018-12-04T00:39:57.850Z,0.00
2018-12-04T00:41:29.418Z,0.00
2018-12-04T00:43:00.989Z,0.00
2018-12-04T00:44:32.662Z,0.00
2018-12-04T00:46:04.134Z,0.00
2018-12-04T00:47:35.705Z,0.00
2018-12-04T00:49:07.276Z,0.00
2018-12-04T00:50:38.948Z,0.00
2018-12-04T00:52:10.422Z,0.00
2018-12-04T00:53:41.991Z,0.00
2018-12-04T00:55:13.569Z,0.00
2018-12-04T00:56:45.334Z,0.00
2018-12-04T00:58:16.706Z,0.00
2018-12-04T00:59:48.278Z,0.00
2018-12-04T01:01:19.850Z,0.00
2018-12-04T01:02:51.421Z,0.00
2018-12-04T01:04:22.992Z,0.00
2018-12-04T01:05:54.565Z,0.00
2018-12-04T01:07:26.154Z,0.00
2018-12-04T01:08:57.708Z,0.00
2018-12-04T01:10:29.278Z,0.00
2018-12-04T01:12:00.850Z,0.00
2018-12-04T01:13:32.422Z,0.00
2018-12-04T01:15:04.102Z,0.00
2018-12-04T01:16:35.565Z,0.00
2018-12-04T01:18:07.136Z,0.00
2018-12-04T01:19:38.705Z,0.00
2018-12-04T01:21:10.380Z,0.00
2018-12-04T01:22:41.849Z,0.00
2018-12-04T01:24:13.424Z,0.00
2018-12-04T01:25:44.990Z,0.00
2018-12-04T01:27:16.674Z,0.00
2018-12-04T01:28:48.136Z,0.00
2018-12-04T01:30:19.703Z,0.00
2018-12-04T01:31:51.274Z,0.00
2018-12-04T01:33:23.073Z,0.00
2018-12-04T01:34:54.416Z,0.00
2018-12-04T01:36:25.987Z,0.00
2018-12-04T01:37:57.558Z,0.00
2018-12-04T01:39:29.229Z,0.00
2018-12-04T01:41:00.703Z,0.00
2018-12-04T01:42:32.270Z,0.00
2018-12-04T01:44:03.841Z,0.00
2018-12-04T01:45:35.713Z,0.00
2018-12-04T01:47:06.983Z,0.00
2018-12-04T01:48:38.554Z,0.00
2018-12-04T01:50:10.136Z,0.00
2018-12-04T01:51:41.896Z,0.00
2018-12-04T01:53:13.267Z,0.00
2018-12-04T01:54:44.838Z,0.00
2018-12-04T01:56:16.409Z,0.00
2018-12-04T01:57:48.080Z,0.00
2018-12-04T01:59:19.551Z,0.00
2018-12-04T02:00:51.122Z,0.00
2018-12-04T02:02:22.692Z,0.00
2018-12-04T02:03:54.266Z,0.00
2018-12-04T02:05:25.835Z,0.00
2018-12-04T02:06:57.406Z,0.00
2018-12-04T02:08:28.977Z,0.00
2018-12-04T02:10:00.649Z,0.00
2018-12-04T02:11:32.119Z,0.00
2018-12-04T02:13:03.690Z,0.00
2018-12-04T02:14:35.261Z,0.00
2018-12-04T02:16:07.133Z,0.00
2018-12-04T02:17:38.404Z,0.00
2018-12-04T02:19:09.974Z,0.00
2018-12-04T02:20:41.546Z,0.00
2018-12-04T02:22:13.117Z,0.00
2018-12-04T02:23:44.690Z,0.00
2018-12-04T02:25:16.260Z,0.00
2018-12-04T02:26:47.830Z,0.00
2018-12-04T02:28:19.502Z,0.00
2018-12-04T02:29:50.973Z,0.00
2018-12-04T02:31:22.543Z,0.00
2018-12-04T02:32:54.114Z,0.00
2018-12-04T02:34:25.687Z,0.00
2018-12-04T02:35:57.256Z,0.00
2018-12-04T02:37:28.829Z,0.00
2018-12-04T02:39:00.399Z,0.00
2018-12-04T02:40:31.978Z,0.00
2018-12-04T02:42:03.539Z,0.00
2018-12-04T02:43:35.112Z,0.00
2018-12-04T02:45:06.682Z,0.00
2018-12-04T02:46:38.654Z,0.00
2018-12-04T02:48:09.824Z,0.00
2018-12-04T02:49:41.395Z,0.00
2018-12-04T02:51:12.970Z,0.00
2018-12-04T02:52:44.636Z,0.00
2018-12-04T02:54:16.110Z,0.00
2018-12-04T02:55:47.679Z,0.00
2018-12-04T02:57:19.249Z,0.00
2018-12-04T02:58:50.822Z,0.00
2018-12-04T03:00:22.392Z,0.00
2018-12-04T03:01:53.962Z,0.00
2018-12-04T03:03:25.534Z,0.00
2018-12-04T03:04:57.204Z,0.00
2018-12-04T03:06:28.674Z,0.00
2018-12-04T03:08:00.245Z,0.00
2018-12-04T03:09:31.816Z,0.00
2018-12-04T03:11:03.386Z,0.00
2018-12-04T03:12:34.957Z,0.00
2018-12-04T03:14:06.528Z,0.00
2018-12-04T03:15:38.099Z,0.00
2018-12-04T03:17:09.677Z,0.00
2018-12-04T03:18:41.241Z,0.00
2018-12-04T03:20:12.811Z,0.00
2018-12-04T03:21:44.381Z,0.00
2018-12-04T03:23:16.152Z,0.00
2018-12-04T03:24:47.523Z,0.00
2018-12-04T03:26:19.097Z,0.00
2018-12-04T03:27:50.674Z,0.00
2018-12-04T03:29:22.234Z,0.00
2018-12-04T03:30:53.806Z,0.00
2018-12-04T03:32:25.379Z,0.00
2018-12-04T03:33:56.946Z,0.00
2018-12-04T03:35:28.516Z,0.00
2018-12-04T03:37:00.088Z,0.00
2018-12-04T03:38:31.657Z,0.00
2018-12-04T03:40:03.229Z,0.00
2018-12-04T03:41:35.601Z,0.00
2018-12-04T03:43:06.370Z,0.00
2018-12-04T03:44:37.940Z,0.00
2018-12-04T03:46:09.512Z,0.00
2018-12-04T03:47:41.082Z,0.00
2018-12-04T03:49:12.652Z,0.00
2018-12-04T03:50:44.223Z,0.00
2018-12-04T03:52:15.794Z,0.00
2018-12-04T03:53:47.464Z,0.00
2018-12-04T03:55:18.934Z,0.00
2018-12-04T03:56:50.507Z,0.00
2018-12-04T03:58:22.076Z,0.00
2018-12-04T03:59:54.549Z,0.00
2018-12-04T04:01:25.218Z,0.00
2018-12-04T04:02:56.788Z,0.00
2018-12-04T04:04:28.361Z,0.00
2018-12-04T04:05:59.930Z,0.00
2018-12-04T04:07:31.500Z,0.00
2018-12-04T04:09:03.072Z,0.00
2018-12-04T04:10:34.641Z,0.00
2018-12-04T04:12:06.214Z,0.00
2018-12-04T04:13:37.783Z,0.00
2018-12-04T04:15:09.353Z,0.00
2018-12-04T04:16:40.924Z,0.00
2018-12-04T04:18:12.594Z,0.00
2018-12-04T04:19:44.064Z,0.00
2018-12-04T04:21:15.636Z,0.00
2018-12-04T04:22:47.210Z,0.00
2018-12-04T04:24:18.876Z,0.00
2018-12-04T04:25:50.346Z,0.00
2018-12-04T04:27:21.917Z,0.00
2018-12-04T04:28:53.487Z,0.00
2018-12-04T04:30:25.359Z,0.00
2018-12-04T04:31:56.634Z,0.00
2018-12-04T04:33:28.199Z,0.00
2018-12-04T04:34:59.773Z,0.00
2018-12-04T04:36:31.440Z,0.00
2018-12-04T04:38:02.911Z,0.00
2018-12-04T04:39:34.481Z,0.00
2018-12-04T04:41:06.052Z,0.00
2018-12-04T04:42:37.623Z,0.00
2018-12-04T04:44:09.198Z,0.00
2018-12-04T04:45:40.767Z,0.00
2018-12-04T04:47:12.335Z,0.00
2018-12-04T04:48:43.907Z,0.00
2018-12-04T04:50:15.476Z,0.00
2018-12-04T04:51:47.046Z,0.00
2018-12-04T04:53:18.618Z,0.00
2018-12-04T04:54:50.289Z,0.00
2018-12-04T04:56:21.758Z,0.00
2018-12-04T04:57:53.329Z,0.00
2018-12-04T04:59:24.900Z,0.00
2018-12-04T05:00:56.469Z,0.00
2018-12-04T05:02:28.039Z,0.00
2018-12-04T05:03:59.611Z,0.00
2018-12-04T05:05:31.185Z,0.00
2018-12-04T05:07:02.757Z,0.00
2018-12-04T05:08:34.321Z,0.00
2018-12-04T05:10:05.891Z,0.00
2018-12-04T05:11:37.464Z,0.00
2018-12-04T05:13:09.133Z,0.00
2018-12-04T05:14:40.603Z,0.00
2018-12-04T05:16:12.174Z,0.00
2018-12-04T05:17:43.745Z,0.00
2018-12-04T05:19:15.315Z,0.00
2018-12-04T05:20:46.891Z,0.00
2018-12-04T05:22:18.456Z,0.00
2018-12-04T05:23:50.026Z,0.00
2018-12-04T05:25:21.597Z,0.00
2018-12-04T05:26:53.167Z,0.00
2018-12-04T05:28:24.737Z,0.00
2018-12-04T05:29:56.308Z,0.00
2018-12-04T05:31:27.978Z,0.00
2018-12-04T05:32:59.449Z,0.00
2018-12-04T05:34:31.027Z,0.00
2018-12-04T05:36:02.590Z,0.00
2018-12-04T05:37:34.160Z,0.00
2018-12-04T05:39:05.733Z,0.00
2018-12-04T05:40:37.300Z,0.00
2018-12-04T05:42:08.870Z,0.00
2018-12-04T05:43:40.440Z,0.00
2018-12-04T05:45:12.010Z,0.00
2018-12-04T05:46:43.581Z,0.00
2018-12-04T05:48:15.151Z,0.00
2018-12-04T05:49:46.822Z,0.00
2018-12-04T05:51:18.293Z,0.00
2018-12-04T05:52:49.862Z,0.00
2018-12-04T05:54:21.433Z,0.00
2018-12-04T05:55:53.003Z,0.00
2018-12-04T05:57:24.573Z,0.00
2018-12-04T05:58:56.144Z,0.00
2018-12-04T06:00:27.714Z,0.00
2018-12-04T06:01:59.284Z,0.00
2018-12-04T06:03:30.855Z,0.00
2018-12-04T06:05:02.425Z,0.00
2018-12-04T06:06:33.996Z,0.00
2018-12-04T06:08:05.665Z,0.00
2018-12-04T06:09:37.141Z,0.00
2018-12-04T06:11:08.730Z,0.00
2018-12-04T06:12:40.276Z,0.00
2018-12-04T06:14:11.846Z,0.00
2018-12-04T06:15:43.416Z,0.00
2018-12-04T06:17:14.987Z,0.00
2018-12-04T06:18:46.557Z,0.00
2018-12-04T06:20:18.127Z,0.00
2018-12-04T06:21:49.698Z,0.00
2018-12-04T06:23:21.269Z,0.00
2018-12-04T06:24:52.838Z,0.00
2018-12-04T06:26:24.508Z,0.00
2018-12-04T06:27:55.978Z,0.00
2018-12-04T06:29:27.548Z,0.00
2018-12-04T06:30:59.119Z,0.00
2018-12-04T06:32:30.689Z,0.00
2018-12-04T06:34:02.259Z,0.00
2018-12-04T06:35:33.829Z,0.00
2018-12-04T06:37:05.399Z,0.00
2018-12-04T06:38:36.970Z,0.00
2018-12-04T06:40:08.540Z,0.00
2018-12-04T06:41:40.111Z,0.00
2018-12-04T06:43:11.681Z,0.00
2018-12-04T06:44:46.751Z,0.00
2018-12-04T06:46:14.822Z,0.00
2018-12-04T06:47:46.392Z,0.00
2018-12-04T06:49:17.962Z,0.00
2018-12-04T06:50:49.532Z,0.00
2018-12-04T06:52:21.103Z,0.00
2018-12-04T06:53:52.673Z,0.00
2018-12-04T06:55:24.246Z,0.00
2018-12-04T06:56:55.815Z,0.00
2018-12-04T06:58:27.384Z,0.00
2018-12-04T06:59:58.955Z,0.00
2018-12-04T07:01:30.524Z,0.00
2018-12-04T07:03:02.196Z,0.00
2018-12-04T07:04:33.668Z,0.00
2018-12-04T07:06:05.238Z,0.00
2018-12-04T07:07:36.809Z,0.00
2018-12-04T07:09:08.376Z,0.00
2018-12-04T07:10:39.946Z,0.00
2018-12-04T07:12:11.516Z,0.00
2018-12-04T07:13:43.087Z,0.00
2018-12-04T07:15:14.660Z,0.00
2018-12-04T07:16:46.227Z,0.00
2018-12-04T07:18:17.802Z,0.00
2018-12-04T07:19:49.368Z,0.00
2018-12-04T07:21:21.038Z,0.00
2018-12-04T07:22:52.515Z,0.00
2018-12-04T07:24:24.080Z,0.00
2018-12-04T07:25:55.649Z,0.00
2018-12-04T07:27:27.218Z,0.00
2018-12-04T07:28:58.789Z,0.00
2018-12-04T07:30:30.399Z,0.00
2018-12-04T07:32:01.930Z,0.00
2018-12-04T07:33:33.502Z,0.00
2018-12-04T07:35:05.071Z,0.00
2018-12-04T07:36:36.644Z,0.00
2018-12-04T07:38:08.211Z,0.00
2018-12-04T07:39:39.882Z,0.00
2018-12-04T07:41:11.352Z,0.00
2018-12-04T07:42:42.940Z,0.00
2018-12-04T07:44:14.493Z,4.00
2018-12-04T07:45:46.100Z,4.00
2018-12-04T07:47:17.633Z,4.00
2018-12-04T07:48:49.372Z,4.00
2018-12-04T07:50:20.775Z,8.00
2018-12-04T07:51:52.344Z,12.00
2018-12-04T07:53:23.915Z,20.00
2018-12-04T07:54:55.521Z,24.00
2018-12-04T07:56:27.086Z,40.00
2018-12-04T07:57:58.725Z,52.00
2018-12-04T07:59:30.215Z,76.00
2018-12-04T08:01:01.767Z,104.00
2018-12-04T08:02:33.338Z,144.00
2018-12-04T08:04:04.907Z,188.00
2018-12-04T08:05:36.629Z,244.00
2018-12-04T08:07:08.047Z,312.00
2018-12-04T08:08:39.653Z,388.00
2018-12-04T08:10:11.187Z,476.00
2018-12-04T08:11:43.195Z,572.00
2018-12-04T08:13:15.373Z,688.00
2018-12-04T08:14:45.905Z,812.00
2018-12-04T08:16:17.570Z,952.00
2018-12-04T08:17:49.046Z,1096.00
2018-12-04T08:19:20.612Z,1252.00
2018-12-04T08:20:52.183Z,1412.00
2018-12-04T08:22:23.751Z,1576.00
2018-12-04T08:23:55.628Z,1744.00
2018-12-04T08:25:26.893Z,1912.00
2018-12-04T08:26:58.463Z,2068.00
2018-12-04T08:28:30.040Z,2224.00
2018-12-04T08:31:33.178Z,2552.00
2018-12-04T08:33:04.781Z,2676.00
2018-12-04T08:34:36.437Z,2636.00
2018-12-04T08:36:08.139Z,2720.00
2018-12-04T08:37:39.458Z,2944.00
2018-12-04T08:39:13.196Z,2824.00
2018-12-04T08:40:42.620Z,2948.00
2018-12-04T08:42:14.576Z,3080.00
2018-12-04T08:43:46.046Z,3428.00
2018-12-04T08:45:17.618Z,3368.00
2018-12-04T08:46:48.882Z,3376.00
2018-12-04T08:48:20.453Z,3928.00
2018-12-04T08:49:52.222Z,3796.00
2018-12-04T08:51:23.869Z,3564.00
2018-12-04T08:52:55.571Z,3668.00
2018-12-04T08:54:26.735Z,3888.00
2018-12-04T08:55:58.345Z,4224.00
2018-12-04T08:57:30.003Z,4440.00
2018-12-04T08:59:01.757Z,4352.00
2018-12-04T09:00:33.035Z,4616.00
2018-12-04T09:02:04.626Z,4428.00
2018-12-04T09:03:36.225Z,4680.00
2018-12-04T09:05:07.771Z,5264.00
2018-12-04T09:06:39.641Z,5316.00
2018-12-04T09:08:10.876Z,5368.00
2018-12-04T09:09:42.549Z,6012.00
2018-12-04T09:11:14.117Z,6604.00
2018-12-04T09:14:17.326Z,5212.00
2018-12-04T09:15:48.728Z,6344.00
2018-12-04T09:17:20.303Z,6316.00
2018-12-04T09:18:51.900Z,6164.00
2018-12-04T09:20:23.513Z,6756.00
2018-12-04T09:21:55.083Z,6180.00
2018-12-04T09:23:26.752Z,6744.00
2018-12-04T09:24:58.177Z,7832.00
2018-12-04T09:26:29.731Z,7492.00
2018-12-04T09:28:01.654Z,8724.00
2018-12-04T09:29:33.113Z,7844.00
2018-12-04T09:31:04.904Z,8212.00
2018-12-04T09:35:39.637Z,10304.00
2018-12-04T09:37:11.072Z,8800.00
2018-12-04T09:38:42.839Z,9828.00
2018-12-04T09:40:14.393Z,10968.00
2018-12-04T09:41:45.446Z,10472.00
2018-12-04T09:43:17.034Z,10032.00
2018-12-04T09:44:48.739Z,9624.00
2018-12-04T09:46:20.188Z,10068.00
2018-12-04T09:47:51.835Z,10696.00
2018-12-04T09:49:23.311Z,11912.00
2018-12-04T09:50:55.300Z,10968.00
2018-12-04T09:52:26.448Z,11352.00
2018-12-04T09:53:58.379Z,12696.00
2018-12-04T09:55:29.801Z,14916.00
2018-12-04T10:00:04.415Z,13788.00
2018-12-04T10:04:39.135Z,16248.00
2018-12-04T10:06:10.705Z,16560.00
2018-12-04T10:07:42.239Z,18368.00
2018-12-04T10:09:13.994Z,17356.00
2018-12-04T10:10:45.463Z,16492.00
2018-12-04T10:13:48.904Z,19168.00
2018-12-04T10:15:20.490Z,21280.00
2018-12-04T10:16:51.626Z,21536.00
2018-12-04T10:18:23.713Z,22944.00
2018-12-04T10:19:54.912Z,20224.00
2018-12-04T10:21:26.447Z,19456.00
2018-12-04T10:22:58.040Z,26016.00
2018-12-04T10:24:30.433Z,27840.00
2018-12-04T10:26:01.380Z,25312.00
2018-12-04T10:27:32.735Z,21760.00
2018-12-04T10:29:04.214Z,23008.00
2018-12-04T10:30:35.790Z,26304.00
2018-12-04T10:33:39.171Z,24896.00
2018-12-04T10:35:11.011Z,24288.00
2018-12-04T10:36:42.918Z,23136.00
2018-12-04T10:38:13.943Z,23008.00
2018-12-04T10:39:45.260Z,21888.00
2018-12-04T10:41:18.138Z,24928.00
2018-12-04T10:42:48.968Z,25696.00
2018-12-04T10:44:20.404Z,26112.00
2018-12-04T10:45:51.767Z,27712.00
2018-12-04T10:48:54.948Z,23200.00
2018-12-04T10:50:26.374Z,25536.00
2018-12-04T10:51:58.158Z,27648.00
2018-12-04T10:53:29.803Z,36768.00
2018-12-04T10:55:01.580Z,24032.00
2018-12-04T10:56:32.852Z,20480.00
2018-12-04T10:58:04.456Z,23808.00
2018-12-04T10:59:36.466Z,28480.00
2018-12-04T11:01:07.379Z,22560.00
2018-12-04T11:02:38.907Z,36960.00
2018-12-04T11:04:10.585Z,42656.00
2018-12-04T11:05:42.136Z,47392.00
2018-12-04T11:10:17.102Z,44064.00
2018-12-04T11:11:48.655Z,44320.00
2018-12-04T11:13:20.406Z,45792.00
2018-12-04T11:14:51.992Z,45056.00
2018-12-04T11:16:23.220Z,46624.00
2018-12-04T11:17:54.749Z,47744.00
2018-12-04T11:19:26.292Z,48224.00
2018-12-04T11:20:58.771Z,49600.00
2018-12-04T11:22:29.526Z,45376.00
2018-12-04T11:24:01.513Z,47744.00
2018-12-04T11:25:32.720Z,48800.00
2018-12-04T11:27:05.045Z,48224.00
2018-12-04T11:28:35.970Z,48416.00
2018-12-04T11:30:07.331Z,49888.00
2018-12-04T11:31:38.911Z,50912.00
2018-12-04T11:33:10.513Z,52128.00
2018-12-04T11:34:42.090Z,56832.00
2018-12-04T11:36:13.873Z,56768.00
2018-12-04T11:37:45.737Z,58336.00
2018-12-04T11:39:17.447Z,56160.00
2018-12-04T11:40:48.707Z,56128.00
2018-12-04T11:42:20.757Z,57184.00
2018-12-04T11:45:23.149Z,58176.00
2018-12-04T11:46:54.824Z,54688.00
2018-12-04T11:48:26.481Z,57440.00
2018-12-04T11:49:57.957Z,56608.00
2018-12-04T11:51:29.935Z,57408.00
2018-12-04T11:53:01.109Z,54304.00
2018-12-04T11:54:32.982Z,55616.00
2018-12-04T11:56:04.862Z,57920.00
2018-12-04T11:57:36.230Z,59264.00
2018-12-04T11:59:07.939Z,58272.00
2018-12-04T12:00:39.187Z,60960.00
2018-12-04T12:02:10.867Z,63680.00
2018-12-04T12:03:42.163Z,64096.00
2018-12-04T12:05:13.768Z,63840.00
2018-12-04T12:06:45.611Z,66624.00
2018-12-04T12:08:16.889Z,63264.00
2018-12-04T12:09:48.512Z,64032.00
2018-12-04T12:11:20.700Z,65088.00
2018-12-04T12:12:51.675Z,70272.00
2018-12-04T12:14:23.547Z,66592.00
2018-12-04T12:15:54.820Z,68032.00
2018-12-04T12:17:26.530Z,63840.00
2018-12-04T12:22:01.163Z,74336.00
2018-12-04T12:25:04.350Z,74400.00
2018-12-04T12:26:37.000Z,74144.00
2018-12-04T12:28:07.914Z,74656.00
2018-12-04T12:29:40.025Z,65984.00
2018-12-04T12:31:12.028Z,70144.00
2018-12-04T12:32:42.925Z,73376.00
2018-12-04T12:34:15.199Z,76992.00
2018-12-04T12:37:17.580Z,73376.00
2018-12-04T12:38:48.552Z,70912.00
2018-12-04T12:40:20.290Z,70048.00
2018-12-04T12:41:51.844Z,75456.00
2018-12-04T12:43:23.605Z,74912.00
2018-12-04T12:44:54.888Z,73824.00
2018-12-04T12:46:26.477Z,76544.00
2018-12-04T12:47:58.658Z,87360.00
2018-12-04T12:49:29.926Z,87296.00
2018-12-04T12:52:33.586Z,93184.00
2018-12-04T12:54:04.694Z,96064.00
2018-12-04T12:55:36.210Z,92704.00
2018-12-04T12:57:07.954Z,95424.00
2018-12-04T12:58:39.368Z,22720.00
2018-12-04T13:00:10.953Z,97408.00
2018-12-04T13:01:42.381Z,90240.00
2018-12-04T13:03:14.637Z,93408.00
2018-12-04T13:04:45.518Z,94432.00
2018-12-04T13:07:48.804Z,31072.00
2018-12-04T13:09:20.466Z,105632.00
2018-12-04T13:10:51.945Z,98208.00
2018-12-04T13:12:23.409Z,96448.00
2018-12-04T13:13:55.092Z,95552.00
2018-12-04T13:15:26.976Z,107808.00
2018-12-04T13:16:58.391Z,97984.00
2018-12-04T13:18:29.982Z,66176.00
2018-12-04T13:20:01.645Z,28960.00
2018-12-04T13:21:33.224Z,110912.00
2018-12-04T13:23:04.706Z,106336.00
2018-12-04T13:24:36.393Z,68064.00
2018-12-04T13:26:07.692Z,112352.00
2018-12-04T13:27:39.621Z,115520.00
2018-12-04T13:30:42.563Z,113760.00
2018-12-04T13:32:14.651Z,68512.00
2018-12-04T13:33:45.931Z,38208.00
2018-12-04T13:38:20.576Z,113280.00
2018-12-04T13:39:51.960Z,111168.00
2018-12-04T13:41:23.748Z,101952.00
2018-12-04T13:42:55.677Z,38272.00
2018-12-04T13:45:58.492Z,104096.00
2018-12-04T13:47:30.081Z,101120.00
2018-12-04T13:50:33.452Z,126592.00
2018-12-04T13:52:04.737Z,125344.00
2018-12-04T13:53:36.220Z,131232.00
2018-12-04T13:55:08.952Z,31136.00
2018-12-04T13:56:39.698Z,33024.00
2018-12-04T13:58:11.211Z,127712.00
2018-12-04T13:59:42.564Z,34784.00
2018-12-04T14:01:14.683Z,32064.00
2018-12-04T14:04:17.421Z,40672.00
2018-12-04T14:05:48.917Z,28320.00
2018-12-04T14:07:20.488Z,126944.00
2018-12-04T14:08:52.448Z,126496.00
2018-12-04T14:10:23.822Z,120864.00
2018-12-04T14:11:55.964Z,126528.00
2018-12-04T14:13:26.823Z,103584.00
2018-12-04T14:14:58.953Z,29984.00
2018-12-04T14:16:30.542Z,129152.00
2018-12-04T14:18:01.780Z,38368.00
2018-12-04T14:19:33.186Z,130752.00
2018-12-04T14:21:04.758Z,125888.00
2018-12-04T14:22:36.347Z,129792.00
2018-12-04T14:24:08.441Z,128768.00
2018-12-04T14:27:11.086Z,30432.00
2018-12-04T14:28:42.793Z,36672.00
2018-12-04T14:31:45.855Z,76896.00
2018-12-04T14:36:21.122Z,33280.00
2018-12-04T14:37:52.200Z,43424.00
2018-12-04T14:39:24.306Z,38048.00
2018-12-04T14:40:55.347Z,120032.00
2018-12-04T14:45:30.505Z,133728.00
2018-12-04T14:48:33.283Z,124544.00
2018-12-04T14:51:36.440Z,40512.00
2018-12-04T14:53:08.662Z,45440.00
2018-12-04T14:54:39.878Z,43936.00
2018-12-04T14:57:42.866Z,150304.00
2018-12-04T14:59:14.906Z,103136.00
2018-12-04T15:00:46.207Z,49728.00
2018-12-04T15:02:17.688Z,120128.00
2018-12-04T15:03:49.241Z,127648.00
2018-12-04T15:05:21.064Z,138400.00
2018-12-04T15:08:24.209Z,147008.00
2018-12-04T15:09:55.784Z,26912.00
2018-12-04T15:12:59.133Z,30560.00
2018-12-04T15:14:30.228Z,31008.00
2018-12-04T15:16:01.802Z,30144.00
2018-12-04T15:17:33.699Z,33312.00
2018-12-04T15:19:04.997Z,46304.00
2018-12-04T15:20:36.573Z,54496.00
2018-12-04T15:22:08.626Z,131744.00
2018-12-04T15:25:11.323Z,145440.00
2018-12-04T15:26:42.906Z,141728.00
2018-12-04T15:28:14.691Z,49408.00
2018-12-04T15:29:46.057Z,33248.00
2018-12-04T15:32:49.235Z,34688.00
2018-12-04T15:34:20.813Z,71520.00
2018-12-04T15:35:53.314Z,144064.00
2018-12-04T15:37:24.184Z,55264.00
2018-12-04T15:38:55.582Z,133856.00
2018-12-04T15:40:27.259Z,34592.00
2018-12-04T15:41:58.735Z,141888.00
2018-12-04T15:43:30.329Z,143840.00
2018-12-04T15:45:01.893Z,55680.00
2018-12-04T15:46:33.720Z,134336.00
2018-12-04T15:48:06.003Z,141120.00
2018-12-04T15:49:36.721Z,146816.00
2018-12-04T15:51:08.318Z,146240.00
2018-12-04T15:52:39.826Z,139456.00
2018-12-04T15:54:11.737Z,141664.00
2018-12-04T15:55:43.802Z,41952.00
2018-12-04T15:57:15.134Z,33440.00
2018-12-04T15:58:46.449Z,136128.00
2018-12-04T16:00:18.913Z,135552.00
2018-12-04T16:01:51.844Z,138752.00
2018-12-04T16:03:23.457Z,142048.00
2018-12-04T16:04:55.681Z,136704.00
2018-12-04T16:06:25.270Z,140128.00
2018-12-04T16:07:56.925Z,131264.00
2018-12-04T16:09:27.412Z,126592.00
2018-12-04T16:10:59.252Z,135104.00
2018-12-04T16:12:30.748Z,133536.00
2018-12-04T16:14:02.595Z,137568.00
2018-12-04T16:15:33.938Z,90016.00
2018-12-04T16:17:07.358Z,41792.00
2018-12-04T16:18:37.707Z,137792.00
2018-12-04T16:20:11.978Z,130880.00
2018-12-04T16:21:41.141Z,137664.00
2018-12-04T16:24:43.639Z,29600.00
2018-12-04T16:26:17.076Z,136608.00
2018-12-04T16:27:47.539Z,130112.00
2018-12-04T16:29:18.194Z,30464.00
2018-12-04T16:30:50.453Z,28320.00
2018-12-04T16:32:22.994Z,30720.00
2018-12-04T16:33:52.704Z,140224.00
2018-12-04T16:35:24.508Z,36864.00
2018-12-04T16:38:27.775Z,140480.00
2018-12-04T16:39:59.652Z,135136.00
2018-12-04T16:41:31.483Z,106720.00
2018-12-04T16:43:02.270Z,132960.00
2018-12-04T16:46:05.913Z,35232.00
2018-12-04T16:47:37.397Z,116896.00
2018-12-04T16:49:09.097Z,32768.00
2018-12-04T16:50:41.041Z,123840.00
2018-12-04T16:52:12.021Z,130976.00
2018-12-04T16:55:15.128Z,134240.00
2018-12-04T16:58:18.464Z,124224.00
2018-12-04T17:01:21.228Z,127392.00
2018-12-04T17:02:53.127Z,113120.00
2018-12-04T17:04:24.402Z,109728.00
2018-12-04T17:05:56.255Z,120832.00
2018-12-04T17:08:59.166Z,122400.00
2018-12-04T17:10:30.830Z,119168.00
2018-12-04T17:12:02.345Z,120768.00
2018-12-04T17:13:33.931Z,123776.00
2018-12-04T17:15:05.516Z,125856.00
2018-12-04T17:16:37.229Z,123936.00
2018-12-04T17:18:08.692Z,119904.00
2018-12-04T17:19:40.282Z,122368.00
2018-12-04T17:21:12.376Z,121312.00
2018-12-04T17:22:43.766Z,119264.00
2018-12-04T17:24:15.769Z,119680.00
2018-12-04T17:25:46.635Z,113056.00
2018-12-04T17:27:18.277Z,54816.00
2018-12-04T17:28:49.967Z,115520.00
2018-12-04T17:30:21.448Z,63104.00
2018-12-04T17:31:53.564Z,32768.00
2018-12-04T17:33:24.580Z,105920.00
2018-12-04T17:36:28.460Z,105056.00
2018-12-04T17:38:01.336Z,111808.00
2018-12-04T17:39:31.774Z,107456.00
2018-12-04T17:41:04.071Z,110176.00
2018-12-04T17:42:34.936Z,111392.00
2018-12-04T17:47:09.492Z,114976.00
2018-12-04T17:48:40.664Z,37216.00
2018-12-04T17:50:12.074Z,34976.00
2018-12-04T17:51:43.693Z,69568.00
2018-12-04T17:53:15.625Z,77888.00
2018-12-04T17:54:48.132Z,114816.00
2018-12-04T17:56:19.089Z,96416.00
2018-12-04T17:57:51.795Z,107552.00
2018-12-04T18:00:53.259Z,105536.00
2018-12-04T18:02:25.660Z,106496.00
2018-12-04T18:03:56.467Z,108224.00
2018-12-04T18:05:27.933Z,107552.00
2018-12-04T18:06:59.513Z,27840.00
2018-12-04T18:08:31.100Z,29312.00
2018-12-04T18:10:02.993Z,106208.00
2018-12-04T18:11:34.424Z,104576.00
2018-12-04T18:13:05.973Z,99328.00
2018-12-04T18:14:38.587Z,97440.00
2018-12-04T18:16:09.036Z,96384.00
2018-12-04T18:17:40.623Z,94400.00
2018-12-04T18:19:12.221Z,88672.00
2018-12-04T18:20:43.805Z,27008.00
2018-12-04T18:22:15.385Z,83584.00
2018-12-04T18:23:46.971Z,33952.00
2018-12-04T18:25:18.561Z,25856.00
2018-12-04T18:26:50.276Z,23680.00
2018-12-04T18:28:22.252Z,21024.00
2018-12-04T18:29:53.523Z,23488.00
2018-12-04T18:31:25.366Z,24064.00
2018-12-04T18:32:57.055Z,25024.00
2018-12-04T18:34:28.371Z,68064.00
2018-12-04T18:37:31.269Z,27520.00
2018-12-04T18:39:02.817Z,23968.00
2018-12-04T18:40:34.425Z,25024.00
2018-12-04T18:42:06.712Z,27808.00
2018-12-04T18:43:37.569Z,44864.00
2018-12-04T18:45:09.149Z,60224.00
2018-12-04T18:46:41.132Z,25504.00
2018-12-04T18:48:12.368Z,77056.00
2018-12-04T18:49:44.134Z,25792.00
2018-12-04T18:51:15.483Z,30944.00
2018-12-04T18:52:47.109Z,27136.00
2018-12-04T18:54:18.647Z,26592.00
2018-12-04T18:57:22.117Z,26304.00
2018-12-04T18:58:53.396Z,54304.00
2018-12-04T19:00:25.181Z,24320.00
2018-12-04T19:01:56.561Z,20000.00
2018-12-04T19:03:28.144Z,18064.00
2018-12-04T19:05:00.033Z,18432.00
2018-12-04T19:06:31.314Z,20096.00
2018-12-04T19:08:02.891Z,21568.00
2018-12-04T19:09:34.624Z,24128.00
2018-12-04T19:11:06.057Z,28512.00
2018-12-04T19:14:09.235Z,25184.00
2018-12-04T19:15:40.802Z,22496.00
2018-12-04T19:17:12.689Z,21152.00
2018-12-04T19:18:44.171Z,22560.00
2018-12-04T19:20:15.751Z,25920.00
2018-12-04T19:21:47.131Z,29216.00
2018-12-04T19:23:18.715Z,67552.00
2018-12-04T19:24:50.299Z,58240.00
2018-12-04T19:26:21.878Z,20064.00
2018-12-04T19:27:53.764Z,19712.00
2018-12-04T19:29:25.348Z,21440.00
2018-12-04T19:32:28.208Z,19424.00
2018-12-04T19:33:59.790Z,18656.00
2018-12-04T19:35:31.677Z,16184.00
2018-12-04T19:37:02.954Z,15692.00
2018-12-04T19:38:34.541Z,15312.00
2018-12-04T19:40:06.118Z,17920.00
2018-12-04T19:41:37.700Z,17712.00
2018-12-04T19:43:09.281Z,25920.00
2018-12-04T19:44:40.863Z,19104.00
2018-12-04T19:46:12.558Z,19008.00
2018-12-04T19:47:44.246Z,17020.00
2018-12-04T19:50:47.196Z,15228.00
2018-12-04T19:52:18.766Z,17284.00
2018-12-04T19:53:50.347Z,18560.00
2018-12-04T19:55:21.927Z,19776.00
2018-12-04T19:56:53.510Z,20960.00
2018-12-04T19:58:25.089Z,18688.00
2018-12-04T19:59:56.669Z,17696.00
2018-12-04T20:01:28.251Z,18560.00
2018-12-04T20:02:59.831Z,19360.00
2018-12-04T20:04:31.510Z,19456.00
2018-12-04T20:06:02.991Z,20224.00
2018-12-04T20:07:34.572Z,19296.00
2018-12-04T20:09:06.155Z,16252.00
2018-12-04T20:10:37.975Z,13752.00
2018-12-04T20:12:09.501Z,13100.00
2018-12-04T20:13:40.932Z,13028.00